sensor_id;sensor_type;location;lat;lon;timestamp;P1;durP1;ratioP1;P2;durP2;ratioP2
46551;SDS011;32278;51.810;4.712;2023-12-14T00:00:29;56.80;;;38.88;;
46551;SDS011;32278;51.810;4.712;2023-12-14T00:02:55;55.78;;;39.88;;
46551;SDS011;32278;51.810;4.712;2023-12-14T00:05:21;47.33;;;37.10;;
46551;SDS011;32278;51.810;4.712;2023-12-14T00:07:47;51.17;;;38.60;;
46551;SDS011;32278;51.810;4.712;2023-12-14T00:10:13;53.30;;;39.45;;
46551;SDS011;32278;51.810;4.712;2023-12-14T00:12:39;56.80;;;41.30;;
46551;SDS011;32278;51.810;4.712;2023-12-14T00:15:05;53.45;;;39.30;;
46551;SDS011;32278;51.810;4.712;2023-12-14T00:17:32;60.30;;;40.70;;
46551;SDS011;32278;51.810;4.712;2023-12-14T00:19:58;44.92;;;37.63;;
46551;SDS011;32278;51.810;4.712;2023-12-14T00:22:24;41.35;;;34.30;;
46551;SDS011;32278;51.810;4.712;2023-12-14T00:24:49;42.85;;;37.15;;
46551;SDS011;32278;51.810;4.712;2023-12-14T00:27:16;38.95;;;32.97;;
46551;SDS011;32278;51.810;4.712;2023-12-14T00:29:42;40.28;;;34.30;;
46551;SDS011;32278;51.810;4.712;2023-12-14T00:32:08;42.38;;;34.95;;
46551;SDS011;32278;51.810;4.712;2023-12-14T00:34:34;37.53;;;32.22;;
46551;SDS011;32278;51.810;4.712;2023-12-14T00:37:00;38.30;;;34.10;;
46551;SDS011;32278;51.810;4.712;2023-12-14T00:39:26;41.42;;;37.03;;
46551;SDS011;32278;51.810;4.712;2023-12-14T00:41:52;40.15;;;34.47;;
46551;SDS011;32278;51.810;4.712;2023-12-14T00:44:18;39.00;;;34.67;;
46551;SDS011;32278;51.810;4.712;2023-12-14T00:46:44;44.38;;;36.28;;
46551;SDS011;32278;51.810;4.712;2023-12-14T00:49:10;39.85;;;35.60;;
46551;SDS011;32278;51.810;4.712;2023-12-14T00:51:36;42.10;;;36.80;;
46551;SDS011;32278;51.810;4.712;2023-12-14T00:54:02;39.15;;;34.10;;
46551;SDS011;32278;51.810;4.712;2023-12-14T00:56:28;37.20;;;33.55;;
46551;SDS011;32278;51.810;4.712;2023-12-14T00:58:54;38.83;;;34.08;;
46551;SDS011;32278;51.810;4.712;2023-12-14T01:01:20;36.67;;;33.20;;
46551;SDS011;32278;51.810;4.712;2023-12-14T01:03:46;35.67;;;32.38;;
46551;SDS011;32278;51.810;4.712;2023-12-14T01:06:12;37.03;;;33.03;;
46551;SDS011;32278;51.810;4.712;2023-12-14T01:08:38;36.53;;;32.85;;
46551;SDS011;32278;51.810;4.712;2023-12-14T01:11:04;34.72;;;31.67;;
46551;SDS011;32278;51.810;4.712;2023-12-14T01:13:30;34.88;;;31.55;;
46551;SDS011;32278;51.810;4.712;2023-12-14T01:15:56;35.22;;;31.77;;
46551;SDS011;32278;51.810;4.712;2023-12-14T01:18:22;37.95;;;34.05;;
46551;SDS011;32278;51.810;4.712;2023-12-14T01:20:49;36.78;;;33.10;;
46551;SDS011;32278;51.810;4.712;2023-12-14T01:23:15;35.58;;;32.05;;
46551;SDS011;32278;51.810;4.712;2023-12-14T01:25:41;34.53;;;31.25;;
46551;SDS011;32278;51.810;4.712;2023-12-14T01:28:07;36.53;;;33.15;;
46551;SDS011;32278;51.810;4.712;2023-12-14T01:30:33;35.33;;;31.77;;
46551;SDS011;32278;51.810;4.712;2023-12-14T01:32:59;36.75;;;33.08;;
46551;SDS011;32278;51.810;4.712;2023-12-14T01:35:25;35.53;;;32.05;;
46551;SDS011;32278;51.810;4.712;2023-12-14T01:37:53;36.85;;;33.22;;
46551;SDS011;32278;51.810;4.712;2023-12-14T01:40:19;37.03;;;33.08;;
46551;SDS011;32278;51.810;4.712;2023-12-14T01:42:45;36.72;;;32.92;;
46551;SDS011;32278;51.810;4.712;2023-12-14T01:45:11;37.03;;;33.50;;
46551;SDS011;32278;51.810;4.712;2023-12-14T01:47:41;37.78;;;33.92;;
46551;SDS011;32278;51.810;4.712;2023-12-14T01:50:07;37.28;;;33.17;;
46551;SDS011;32278;51.810;4.712;2023-12-14T01:52:32;39.25;;;35.20;;
46551;SDS011;32278;51.810;4.712;2023-12-14T01:54:58;37.22;;;33.38;;
46551;SDS011;32278;51.810;4.712;2023-12-14T01:57:24;37.30;;;33.38;;
46551;SDS011;32278;51.810;4.712;2023-12-14T01:59:50;37.20;;;33.40;;
46551;SDS011;32278;51.810;4.712;2023-12-14T02:02:16;35.35;;;31.83;;
46551;SDS011;32278;51.810;4.712;2023-12-14T02:04:42;35.67;;;32.08;;
46551;SDS011;32278;51.810;4.712;2023-12-14T02:07:09;35.70;;;31.55;;
46551;SDS011;32278;51.810;4.712;2023-12-14T02:09:35;35.97;;;32.42;;
46551;SDS011;32278;51.810;4.712;2023-12-14T02:12:01;35.55;;;31.70;;
46551;SDS011;32278;51.810;4.712;2023-12-14T02:14:27;35.17;;;31.67;;
46551;SDS011;32278;51.810;4.712;2023-12-14T02:16:52;33.28;;;29.98;;
46551;SDS011;32278;51.810;4.712;2023-12-14T02:19:18;34.03;;;30.95;;
46551;SDS011;32278;51.810;4.712;2023-12-14T02:21:44;34.20;;;30.55;;
46551;SDS011;32278;51.810;4.712;2023-12-14T02:24:10;35.13;;;31.38;;
46551;SDS011;32278;51.810;4.712;2023-12-14T02:26:36;35.65;;;32.05;;
46551;SDS011;32278;51.810;4.712;2023-12-14T02:29:02;34.80;;;30.67;;
46551;SDS011;32278;51.810;4.712;2023-12-14T02:31:28;34.83;;;31.15;;
46551;SDS011;32278;51.810;4.712;2023-12-14T02:33:54;35.30;;;31.80;;
46551;SDS011;32278;51.810;4.712;2023-12-14T02:36:20;34.28;;;30.92;;
46551;SDS011;32278;51.810;4.712;2023-12-14T02:38:46;35.72;;;32.00;;
46551;SDS011;32278;51.810;4.712;2023-12-14T02:41:12;34.30;;;30.73;;
46551;SDS011;32278;51.810;4.712;2023-12-14T02:43:38;32.42;;;29.05;;
46551;SDS011;32278;51.810;4.712;2023-12-14T02:46:05;35.95;;;30.60;;
46551;SDS011;32278;51.810;4.712;2023-12-14T02:48:31;33.00;;;29.48;;
46551;SDS011;32278;51.810;4.712;2023-12-14T02:50:57;32.97;;;29.67;;
46551;SDS011;32278;51.810;4.712;2023-12-14T02:53:28;34.45;;;31.05;;
46551;SDS011;32278;51.810;4.712;2023-12-14T02:55:54;35.88;;;32.05;;
46551;SDS011;32278;51.810;4.712;2023-12-14T02:58:20;36.47;;;32.80;;
46551;SDS011;32278;51.810;4.712;2023-12-14T03:00:46;33.78;;;29.92;;
46551;SDS011;32278;51.810;4.712;2023-12-14T03:03:12;39.58;;;34.33;;
46551;SDS011;32278;51.810;4.712;2023-12-14T03:05:38;35.03;;;31.25;;
46551;SDS011;32278;51.810;4.712;2023-12-14T03:08:04;37.55;;;32.95;;
46551;SDS011;32278;51.810;4.712;2023-12-14T03:10:30;36.55;;;32.53;;
46551;SDS011;32278;51.810;4.712;2023-12-14T03:12:56;36.92;;;32.63;;
46551;SDS011;32278;51.810;4.712;2023-12-14T03:15:22;37.53;;;33.03;;
46551;SDS011;32278;51.810;4.712;2023-12-14T03:17:48;38.15;;;34.10;;
46551;SDS011;32278;51.810;4.712;2023-12-14T03:20:14;37.40;;;33.45;;
46551;SDS011;32278;51.810;4.712;2023-12-14T03:22:40;39.17;;;34.45;;
46551;SDS011;32278;51.810;4.712;2023-12-14T03:25:06;42.67;;;36.78;;
46551;SDS011;32278;51.810;4.712;2023-12-14T03:27:32;41.72;;;34.72;;
46551;SDS011;32278;51.810;4.712;2023-12-14T03:29:58;38.17;;;33.95;;
46551;SDS011;32278;51.810;4.712;2023-12-14T03:32:24;45.22;;;35.03;;
46551;SDS011;32278;51.810;4.712;2023-12-14T03:34:50;38.55;;;34.13;;
46551;SDS011;32278;51.810;4.712;2023-12-14T03:37:16;38.85;;;33.83;;
46551;SDS011;32278;51.810;4.712;2023-12-14T03:39:42;37.65;;;33.72;;
46551;SDS011;32278;51.810;4.712;2023-12-14T03:42:08;43.95;;;33.00;;
46551;SDS011;32278;51.810;4.712;2023-12-14T03:44:34;41.03;;;33.42;;
46551;SDS011;32278;51.810;4.712;2023-12-14T03:47:00;38.97;;;33.13;;
46551;SDS011;32278;51.810;4.712;2023-12-14T03:49:26;36.70;;;32.75;;
46551;SDS011;32278;51.810;4.712;2023-12-14T03:51:52;41.45;;;34.05;;
46551;SDS011;32278;51.810;4.712;2023-12-14T03:54:18;36.35;;;31.98;;
46551;SDS011;32278;51.810;4.712;2023-12-14T03:56:44;36.25;;;32.35;;
46551;SDS011;32278;51.810;4.712;2023-12-14T03:59:10;35.33;;;31.50;;
46551;SDS011;32278;51.810;4.712;2023-12-14T04:01:36;37.03;;;33.17;;
46551;SDS011;32278;51.810;4.712;2023-12-14T04:04:04;36.92;;;32.38;;
46551;SDS011;32278;51.810;4.712;2023-12-14T04:06:30;36.00;;;31.52;;
46551;SDS011;32278;51.810;4.712;2023-12-14T04:08:56;36.17;;;31.35;;
46551;SDS011;32278;51.810;4.712;2023-12-14T04:11:22;34.88;;;30.50;;
46551;SDS011;32278;51.810;4.712;2023-12-14T04:13:49;36.78;;;29.27;;
46551;SDS011;32278;51.810;4.712;2023-12-14T04:16:21;33.78;;;28.95;;
46551;SDS011;32278;51.810;4.712;2023-12-14T04:18:47;35.67;;;31.15;;
46551;SDS011;32278;51.810;4.712;2023-12-14T04:21:13;35.75;;;30.52;;
46551;SDS011;32278;51.810;4.712;2023-12-14T04:23:39;35.75;;;31.92;;
46551;SDS011;32278;51.810;4.712;2023-12-14T04:26:05;38.65;;;32.33;;
46551;SDS011;32278;51.810;4.712;2023-12-14T04:28:32;41.50;;;33.10;;
46551;SDS011;32278;51.810;4.712;2023-12-14T04:30:58;39.40;;;32.17;;
46551;SDS011;32278;51.810;4.712;2023-12-14T04:33:24;39.60;;;31.20;;
46551;SDS011;32278;51.810;4.712;2023-12-14T04:35:50;38.78;;;30.05;;
46551;SDS011;32278;51.810;4.712;2023-12-14T04:38:16;38.58;;;29.10;;
46551;SDS011;32278;51.810;4.712;2023-12-14T04:40:42;39.03;;;28.33;;
46551;SDS011;32278;51.810;4.712;2023-12-14T04:43:08;36.55;;;29.02;;
46551;SDS011;32278;51.810;4.712;2023-12-14T04:45:34;34.17;;;28.13;;
46551;SDS011;32278;51.810;4.712;2023-12-14T04:48:00;43.40;;;29.75;;
46551;SDS011;32278;51.810;4.712;2023-12-14T04:50:26;30.33;;;26.70;;
46551;SDS011;32278;51.810;4.712;2023-12-14T04:52:52;31.65;;;27.65;;
46551;SDS011;32278;51.810;4.712;2023-12-14T04:55:18;34.90;;;28.20;;
46551;SDS011;32278;51.810;4.712;2023-12-14T04:57:44;37.88;;;29.05;;
46551;SDS011;32278;51.810;4.712;2023-12-14T05:00:11;40.28;;;30.52;;
46551;SDS011;32278;51.810;4.712;2023-12-14T05:02:37;34.42;;;30.48;;
46551;SDS011;32278;51.810;4.712;2023-12-14T05:05:04;34.80;;;29.75;;
46551;SDS011;32278;51.810;4.712;2023-12-14T05:07:30;33.15;;;29.58;;
46551;SDS011;32278;51.810;4.712;2023-12-14T05:09:56;32.00;;;28.35;;
46551;SDS011;32278;51.810;4.712;2023-12-14T05:12:21;31.75;;;28.38;;
46551;SDS011;32278;51.810;4.712;2023-12-14T05:14:50;36.72;;;27.65;;
46551;SDS011;32278;51.810;4.712;2023-12-14T05:17:16;31.67;;;27.30;;
46551;SDS011;32278;51.810;4.712;2023-12-14T05:19:42;29.08;;;25.73;;
46551;SDS011;32278;51.810;4.712;2023-12-14T05:22:08;27.30;;;24.60;;
46551;SDS011;32278;51.810;4.712;2023-12-14T05:24:34;29.05;;;23.85;;
46551;SDS011;32278;51.810;4.712;2023-12-14T05:27:00;27.05;;;24.33;;
46551;SDS011;32278;51.810;4.712;2023-12-14T05:29:26;29.80;;;23.83;;
46551;SDS011;32278;51.810;4.712;2023-12-14T05:31:52;26.23;;;23.70;;
46551;SDS011;32278;51.810;4.712;2023-12-14T05:34:18;26.60;;;21.58;;
46551;SDS011;32278;51.810;4.712;2023-12-14T05:36:44;22.95;;;20.70;;
46551;SDS011;32278;51.810;4.712;2023-12-14T05:39:09;23.25;;;19.17;;
46551;SDS011;32278;51.810;4.712;2023-12-14T05:41:39;27.83;;;18.90;;
46551;SDS011;32278;51.810;4.712;2023-12-14T05:44:05;25.27;;;17.70;;
46551;SDS011;32278;51.810;4.712;2023-12-14T05:46:31;21.60;;;17.70;;
46551;SDS011;32278;51.810;4.712;2023-12-14T05:48:57;21.45;;;15.85;;
46551;SDS011;32278;51.810;4.712;2023-12-14T05:51:27;18.27;;;16.38;;
46551;SDS011;32278;51.810;4.712;2023-12-14T05:53:53;20.63;;;17.00;;
46551;SDS011;32278;51.810;4.712;2023-12-14T05:56:19;24.15;;;17.33;;
46551;SDS011;32278;51.810;4.712;2023-12-14T05:58:45;21.83;;;17.85;;
46551;SDS011;32278;51.810;4.712;2023-12-14T06:01:11;21.17;;;16.83;;
46551;SDS011;32278;51.810;4.712;2023-12-14T06:03:37;20.25;;;18.35;;
46551;SDS011;32278;51.810;4.712;2023-12-14T06:06:03;20.90;;;17.88;;
46551;SDS011;32278;51.810;4.712;2023-12-14T06:08:29;18.20;;;16.30;;
46551;SDS011;32278;51.810;4.712;2023-12-14T06:10:55;19.17;;;15.75;;
46551;SDS011;32278;51.810;4.712;2023-12-14T06:13:21;22.23;;;15.90;;
46551;SDS011;32278;51.810;4.712;2023-12-14T06:15:48;16.98;;;15.07;;
46551;SDS011;32278;51.810;4.712;2023-12-14T06:18:14;17.58;;;16.05;;
46551;SDS011;32278;51.810;4.712;2023-12-14T06:20:40;20.98;;;14.23;;
46551;SDS011;32278;51.810;4.712;2023-12-14T06:23:08;16.63;;;14.93;;
46551;SDS011;32278;51.810;4.712;2023-12-14T06:25:34;18.67;;;15.23;;
46551;SDS011;32278;51.810;4.712;2023-12-14T06:28:00;16.45;;;14.35;;
46551;SDS011;32278;51.810;4.712;2023-12-14T06:30:28;17.35;;;14.95;;
46551;SDS011;32278;51.810;4.712;2023-12-14T06:32:54;15.55;;;13.88;;
46551;SDS011;32278;51.810;4.712;2023-12-14T06:35:21;16.30;;;13.27;;
46551;SDS011;32278;51.810;4.712;2023-12-14T06:37:47;15.63;;;13.73;;
46551;SDS011;32278;51.810;4.712;2023-12-14T06:40:13;14.38;;;12.98;;
46551;SDS011;32278;51.810;4.712;2023-12-14T06:42:39;16.08;;;12.73;;
46551;SDS011;32278;51.810;4.712;2023-12-14T06:45:07;12.40;;;10.98;;
46551;SDS011;32278;51.810;4.712;2023-12-14T06:47:33;11.10;;;10.10;;
46551;SDS011;32278;51.810;4.712;2023-12-14T06:49:59;14.05;;;10.02;;
46551;SDS011;32278;51.810;4.712;2023-12-14T06:52:25;12.30;;;10.90;;
46551;SDS011;32278;51.810;4.712;2023-12-14T06:54:51;15.90;;;10.55;;
46551;SDS011;32278;51.810;4.712;2023-12-14T06:57:17;15.13;;;12.25;;
46551;SDS011;32278;51.810;4.712;2023-12-14T06:59:43;13.20;;;11.75;;
46551;SDS011;32278;51.810;4.712;2023-12-14T07:02:09;13.77;;;12.35;;
46551;SDS011;32278;51.810;4.712;2023-12-14T07:04:35;14.35;;;12.60;;
46551;SDS011;32278;51.810;4.712;2023-12-14T07:07:01;15.45;;;13.45;;
46551;SDS011;32278;51.810;4.712;2023-12-14T07:09:27;14.00;;;12.57;;
46551;SDS011;32278;51.810;4.712;2023-12-14T07:11:53;17.35;;;15.52;;
46551;SDS011;32278;51.810;4.712;2023-12-14T07:14:19;19.40;;;14.40;;
46551;SDS011;32278;51.810;4.712;2023-12-14T07:16:45;19.92;;;14.90;;
46551;SDS011;32278;51.810;4.712;2023-12-14T07:19:11;14.80;;;13.05;;
46551;SDS011;32278;51.810;4.712;2023-12-14T07:21:37;16.25;;;13.30;;
46551;SDS011;32278;51.810;4.712;2023-12-14T07:24:03;15.32;;;13.73;;
46551;SDS011;32278;51.810;4.712;2023-12-14T07:26:29;15.35;;;12.60;;
46551;SDS011;32278;51.810;4.712;2023-12-14T07:28:55;15.95;;;12.32;;
46551;SDS011;32278;51.810;4.712;2023-12-14T07:31:21;15.25;;;13.65;;
46551;SDS011;32278;51.810;4.712;2023-12-14T07:33:47;16.67;;;14.27;;
46551;SDS011;32278;51.810;4.712;2023-12-14T07:36:12;18.33;;;15.00;;
46551;SDS011;32278;51.810;4.712;2023-12-14T07:38:38;19.08;;;13.52;;
46551;SDS011;32278;51.810;4.712;2023-12-14T07:41:05;19.90;;;13.77;;
46551;SDS011;32278;51.810;4.712;2023-12-14T07:43:31;17.30;;;15.52;;
46551;SDS011;32278;51.810;4.712;2023-12-14T07:45:57;17.25;;;14.38;;
46551;SDS011;32278;51.810;4.712;2023-12-14T07:48:23;19.73;;;14.93;;
46551;SDS011;32278;51.810;4.712;2023-12-14T07:50:49;16.63;;;14.63;;
46551;SDS011;32278;51.810;4.712;2023-12-14T07:53:16;18.73;;;16.70;;
46551;SDS011;32278;51.810;4.712;2023-12-14T07:55:42;19.13;;;16.23;;
46551;SDS011;32278;51.810;4.712;2023-12-14T07:58:08;17.42;;;14.27;;
46551;SDS011;32278;51.810;4.712;2023-12-14T08:00:34;15.63;;;14.00;;
46551;SDS011;32278;51.810;4.712;2023-12-14T08:03:00;17.15;;;14.55;;
46551;SDS011;32278;51.810;4.712;2023-12-14T08:05:26;19.75;;;14.27;;
46551;SDS011;32278;51.810;4.712;2023-12-14T08:07:52;18.13;;;13.60;;
46551;SDS011;32278;51.810;4.712;2023-12-14T08:10:18;16.83;;;14.35;;
46551;SDS011;32278;51.810;4.712;2023-12-14T08:12:44;15.02;;;13.48;;
46551;SDS011;32278;51.810;4.712;2023-12-14T08:15:12;17.60;;;14.38;;
46551;SDS011;32278;51.810;4.712;2023-12-14T08:17:38;15.57;;;13.98;;
46551;SDS011;32278;51.810;4.712;2023-12-14T08:20:04;23.60;;;14.93;;
46551;SDS011;32278;51.810;4.712;2023-12-14T08:22:33;19.17;;;15.60;;
46551;SDS011;32278;51.810;4.712;2023-12-14T08:24:59;18.40;;;16.20;;
46551;SDS011;32278;51.810;4.712;2023-12-14T08:27:25;16.02;;;14.32;;
46551;SDS011;32278;51.810;4.712;2023-12-14T08:29:51;20.38;;;15.95;;
46551;SDS011;32278;51.810;4.712;2023-12-14T08:32:17;17.33;;;15.52;;
46551;SDS011;32278;51.810;4.712;2023-12-14T08:34:43;18.55;;;15.00;;
46551;SDS011;32278;51.810;4.712;2023-12-14T08:37:10;21.70;;;16.40;;
46551;SDS011;32278;51.810;4.712;2023-12-14T08:39:35;19.17;;;16.55;;
46551;SDS011;32278;51.810;4.712;2023-12-14T08:42:01;21.23;;;16.50;;
46551;SDS011;32278;51.810;4.712;2023-12-14T08:44:27;18.60;;;16.10;;
46551;SDS011;32278;51.810;4.712;2023-12-14T08:46:53;21.52;;;15.80;;
46551;SDS011;32278;51.810;4.712;2023-12-14T08:49:19;21.90;;;15.77;;
46551;SDS011;32278;51.810;4.712;2023-12-14T08:51:46;21.27;;;17.27;;
46551;SDS011;32278;51.810;4.712;2023-12-14T08:54:12;19.35;;;16.70;;
46551;SDS011;32278;51.810;4.712;2023-12-14T08:56:38;19.77;;;16.63;;
46551;SDS011;32278;51.810;4.712;2023-12-14T08:59:04;20.05;;;15.75;;
46551;SDS011;32278;51.810;4.712;2023-12-14T09:01:30;16.30;;;14.63;;
46551;SDS011;32278;51.810;4.712;2023-12-14T09:03:56;18.55;;;14.68;;
46551;SDS011;32278;51.810;4.712;2023-12-14T09:06:22;16.33;;;14.55;;
46551;SDS011;32278;51.810;4.712;2023-12-14T09:08:48;21.05;;;14.50;;
46551;SDS011;32278;51.810;4.712;2023-12-14T09:11:14;16.85;;;14.85;;
46551;SDS011;32278;51.810;4.712;2023-12-14T09:13:41;17.50;;;15.13;;
46551;SDS011;32278;51.810;4.712;2023-12-14T09:16:07;17.83;;;15.02;;
46551;SDS011;32278;51.810;4.712;2023-12-14T09:18:34;20.50;;;15.88;;
46551;SDS011;32278;51.810;4.712;2023-12-14T09:20:59;18.25;;;14.85;;
46551;SDS011;32278;51.810;4.712;2023-12-14T09:23:25;18.88;;;13.68;;
46551;SDS011;32278;51.810;4.712;2023-12-14T09:25:51;20.63;;;13.93;;
46551;SDS011;32278;51.810;4.712;2023-12-14T09:28:17;19.00;;;13.73;;
46551;SDS011;32278;51.810;4.712;2023-12-14T09:30:43;17.27;;;13.07;;
46551;SDS011;32278;51.810;4.712;2023-12-14T09:33:09;17.85;;;13.10;;
46551;SDS011;32278;51.810;4.712;2023-12-14T09:35:35;15.65;;;13.02;;
46551;SDS011;32278;51.810;4.712;2023-12-14T09:38:02;13.32;;;11.88;;
46551;SDS011;32278;51.810;4.712;2023-12-14T09:40:28;17.88;;;11.95;;
46551;SDS011;32278;51.810;4.712;2023-12-14T09:42:54;15.88;;;12.25;;
46551;SDS011;32278;51.810;4.712;2023-12-14T09:45:23;16.60;;;12.55;;
46551;SDS011;32278;51.810;4.712;2023-12-14T09:47:49;12.45;;;10.70;;
46551;SDS011;32278;51.810;4.712;2023-12-14T09:50:15;20.15;;;11.68;;
46551;SDS011;32278;51.810;4.712;2023-12-14T09:52:42;16.52;;;11.88;;
46551;SDS011;32278;51.810;4.712;2023-12-14T09:55:12;14.82;;;12.68;;
46551;SDS011;32278;51.810;4.712;2023-12-14T09:57:39;15.13;;;11.40;;
46551;SDS011;32278;51.810;4.712;2023-12-14T10:00:05;14.63;;;11.55;;
46551;SDS011;32278;51.810;4.712;2023-12-14T10:02:36;15.10;;;11.40;;
46551;SDS011;32278;51.810;4.712;2023-12-14T10:05:02;12.50;;;10.75;;
46551;SDS011;32278;51.810;4.712;2023-12-14T10:07:28;12.82;;;11.45;;
46551;SDS011;32278;51.810;4.712;2023-12-14T10:09:56;16.73;;;11.68;;
46551;SDS011;32278;51.810;4.712;2023-12-14T10:12:39;15.52;;;10.55;;
46551;SDS011;32278;51.810;4.712;2023-12-14T10:15:15;13.63;;;10.80;;
46551;SDS011;32278;51.810;4.712;2023-12-14T10:17:41;12.20;;;10.27;;
46551;SDS011;32278;51.810;4.712;2023-12-14T10:20:07;12.70;;;10.75;;
46551;SDS011;32278;51.810;4.712;2023-12-14T10:22:34;15.20;;;10.88;;
46551;SDS011;32278;51.810;4.712;2023-12-14T10:25:02;10.00;;;8.98;;
46551;SDS011;32278;51.810;4.712;2023-12-14T10:27:29;11.55;;;9.20;;
46551;SDS011;32278;51.810;4.712;2023-12-14T10:29:55;11.32;;;9.27;;
46551;SDS011;32278;51.810;4.712;2023-12-14T10:32:22;13.25;;;9.57;;
46551;SDS011;32278;51.810;4.712;2023-12-14T10:34:48;14.40;;;9.20;;
46551;SDS011;32278;51.810;4.712;2023-12-14T10:37:15;11.60;;;8.63;;
46551;SDS011;32278;51.810;4.712;2023-12-14T10:39:42;10.93;;;9.00;;
46551;SDS011;32278;51.810;4.712;2023-12-14T10:42:08;10.98;;;8.35;;
46551;SDS011;32278;51.810;4.712;2023-12-14T10:44:36;11.02;;;8.35;;
46551;SDS011;32278;51.810;4.712;2023-12-14T10:47:03;13.45;;;8.38;;
46551;SDS011;32278;51.810;4.712;2023-12-14T10:49:29;11.73;;;8.02;;
46551;SDS011;32278;51.810;4.712;2023-12-14T10:51:56;11.18;;;7.93;;
46551;SDS011;32278;51.810;4.712;2023-12-14T10:54:23;9.93;;;7.70;;
46551;SDS011;32278;51.810;4.712;2023-12-14T10:56:49;9.95;;;7.88;;
46551;SDS011;32278;51.810;4.712;2023-12-14T10:59:15;9.38;;;7.82;;
46551;SDS011;32278;51.810;4.712;2023-12-14T11:01:42;9.70;;;8.52;;
46551;SDS011;32278;51.810;4.712;2023-12-14T11:04:08;11.32;;;8.35;;
46551;SDS011;32278;51.810;4.712;2023-12-14T11:06:38;10.52;;;8.70;;
46551;SDS011;32278;51.810;4.712;2023-12-14T11:09:07;12.77;;;8.57;;
46551;SDS011;32278;51.810;4.712;2023-12-14T11:11:42;10.38;;;7.72;;
46551;SDS011;32278;51.810;4.712;2023-12-14T11:14:10;13.02;;;7.70;;
46551;SDS011;32278;51.810;4.712;2023-12-14T11:16:37;10.32;;;8.25;;
46551;SDS011;32278;51.810;4.712;2023-12-14T11:24:14;12.82;;;8.50;;
46551;SDS011;32278;51.810;4.712;2023-12-14T11:26:40;11.80;;;8.70;;
46551;SDS011;32278;51.810;4.712;2023-12-14T11:29:06;16.10;;;9.02;;
46551;SDS011;32278;51.810;4.712;2023-12-14T11:31:32;16.88;;;10.23;;
46551;SDS011;32278;51.810;4.712;2023-12-14T11:34:00;11.82;;;9.48;;
46551;SDS011;32278;51.810;4.712;2023-12-14T11:36:28;12.50;;;9.45;;
46551;SDS011;32278;51.810;4.712;2023-12-14T11:38:54;11.07;;;8.93;;
46551;SDS011;32278;51.810;4.712;2023-12-14T11:41:23;11.65;;;9.23;;
46551;SDS011;32278;51.810;4.712;2023-12-14T11:43:50;13.40;;;9.55;;
46551;SDS011;32278;51.810;4.712;2023-12-14T11:46:16;12.95;;;10.02;;
46551;SDS011;32278;51.810;4.712;2023-12-14T11:48:45;13.85;;;9.43;;
46551;SDS011;32278;51.810;4.712;2023-12-14T11:51:13;14.95;;;10.32;;
46551;SDS011;32278;51.810;4.712;2023-12-14T11:53:39;9.90;;;8.35;;
46551;SDS011;32278;51.810;4.712;2023-12-14T11:56:05;12.13;;;8.63;;
46551;SDS011;32278;51.810;4.712;2023-12-14T11:58:32;14.40;;;9.75;;
46551;SDS011;32278;51.810;4.712;2023-12-14T12:03:37;13.35;;;10.23;;
46551;SDS011;32278;51.810;4.712;2023-12-14T12:06:04;18.45;;;10.35;;
46551;SDS011;32278;51.810;4.712;2023-12-14T12:08:30;12.98;;;9.85;;
46551;SDS011;32278;51.810;4.712;2023-12-14T12:10:56;14.85;;;9.95;;
46551;SDS011;32278;51.810;4.712;2023-12-14T12:13:22;16.20;;;10.23;;
46551;SDS011;32278;51.810;4.712;2023-12-14T12:15:48;13.70;;;9.93;;
46551;SDS011;32278;51.810;4.712;2023-12-14T12:18:15;15.20;;;10.35;;
46551;SDS011;32278;51.810;4.712;2023-12-14T12:20:44;15.27;;;10.30;;
46551;SDS011;32278;51.810;4.712;2023-12-14T12:23:10;20.73;;;12.35;;
46551;SDS011;32278;51.810;4.712;2023-12-14T12:25:36;19.17;;;11.73;;
46551;SDS011;32278;51.810;4.712;2023-12-14T12:28:03;16.45;;;11.75;;
46551;SDS011;32278;51.810;4.712;2023-12-14T12:30:29;20.30;;;12.70;;
46551;SDS011;32278;51.810;4.712;2023-12-14T12:32:55;16.25;;;11.88;;
46551;SDS011;32278;51.810;4.712;2023-12-14T12:35:22;17.02;;;11.93;;
46551;SDS011;32278;51.810;4.712;2023-12-14T12:37:48;16.30;;;11.20;;
46551;SDS011;32278;51.810;4.712;2023-12-14T12:40:19;16.60;;;11.25;;
46551;SDS011;32278;51.810;4.712;2023-12-14T12:42:45;16.52;;;11.68;;
46551;SDS011;32278;51.810;4.712;2023-12-14T12:45:13;17.20;;;12.13;;
46551;SDS011;32278;51.810;4.712;2023-12-14T12:47:39;18.30;;;12.30;;
46551;SDS011;32278;51.810;4.712;2023-12-14T12:50:05;18.75;;;11.68;;
46551;SDS011;32278;51.810;4.712;2023-12-14T12:52:31;16.33;;;11.93;;
46551;SDS011;32278;51.810;4.712;2023-12-14T12:54:57;15.60;;;10.63;;
46551;SDS011;32278;51.810;4.712;2023-12-14T12:57:23;15.85;;;10.90;;
46551;SDS011;32278;51.810;4.712;2023-12-14T12:59:49;16.27;;;10.95;;
46551;SDS011;32278;51.810;4.712;2023-12-14T13:02:15;21.92;;;11.48;;
46551;SDS011;32278;51.810;4.712;2023-12-14T13:04:41;14.95;;;10.65;;
46551;SDS011;32278;51.810;4.712;2023-12-14T13:07:07;16.65;;;10.55;;
46551;SDS011;32278;51.810;4.712;2023-12-14T13:09:33;18.33;;;10.82;;
46551;SDS011;32278;51.810;4.712;2023-12-14T13:11:59;19.30;;;11.45;;
46551;SDS011;32278;51.810;4.712;2023-12-14T13:14:25;16.45;;;10.68;;
46551;SDS011;32278;51.810;4.712;2023-12-14T13:16:51;16.48;;;9.82;;
46551;SDS011;32278;51.810;4.712;2023-12-14T13:19:17;20.13;;;9.65;;
46551;SDS011;32278;51.810;4.712;2023-12-14T13:21:43;14.07;;;10.50;;
46551;SDS011;32278;51.810;4.712;2023-12-14T13:24:09;14.88;;;10.43;;
46551;SDS011;32278;51.810;4.712;2023-12-14T13:26:35;16.48;;;9.88;;
46551;SDS011;32278;51.810;4.712;2023-12-14T13:29:01;15.88;;;11.25;;
46551;SDS011;32278;51.810;4.712;2023-12-14T13:31:28;20.08;;;11.63;;
46551;SDS011;32278;51.810;4.712;2023-12-14T13:33:53;15.82;;;11.00;;
46551;SDS011;32278;51.810;4.712;2023-12-14T13:36:19;18.48;;;11.48;;
46551;SDS011;32278;51.810;4.712;2023-12-14T13:38:45;17.33;;;10.73;;
46551;SDS011;32278;51.810;4.712;2023-12-14T13:41:12;16.55;;;10.88;;
46551;SDS011;32278;51.810;4.712;2023-12-14T13:43:38;17.85;;;10.57;;
46551;SDS011;32278;51.810;4.712;2023-12-14T13:46:04;18.92;;;9.75;;
46551;SDS011;32278;51.810;4.712;2023-12-14T13:48:30;14.82;;;9.77;;
46551;SDS011;32278;51.810;4.712;2023-12-14T13:50:56;16.15;;;10.07;;
46551;SDS011;32278;51.810;4.712;2023-12-14T13:53:22;16.70;;;9.88;;
46551;SDS011;32278;51.810;4.712;2023-12-14T13:55:49;16.23;;;9.77;;
46551;SDS011;32278;51.810;4.712;2023-12-14T13:58:15;13.07;;;8.93;;
46551;SDS011;32278;51.810;4.712;2023-12-14T14:00:41;17.67;;;9.35;;
46551;SDS011;32278;51.810;4.712;2023-12-14T14:03:08;14.15;;;9.00;;
46551;SDS011;32278;51.810;4.712;2023-12-14T14:05:34;18.63;;;8.73;;
46551;SDS011;32278;51.810;4.712;2023-12-14T14:08:00;16.17;;;9.23;;
46551;SDS011;32278;51.810;4.712;2023-12-14T14:10:26;14.52;;;9.32;;
46551;SDS011;32278;51.810;4.712;2023-12-14T14:12:52;15.50;;;10.40;;
46551;SDS011;32278;51.810;4.712;2023-12-14T14:15:19;16.90;;;10.38;;
46551;SDS011;32278;51.810;4.712;2023-12-14T14:17:46;13.02;;;8.82;;
46551;SDS011;32278;51.810;4.712;2023-12-14T14:20:16;12.93;;;8.93;;
46551;SDS011;32278;51.810;4.712;2023-12-14T14:22:42;17.88;;;9.27;;
46551;SDS011;32278;51.810;4.712;2023-12-14T14:25:09;17.40;;;9.55;;